sensor_id;sensor_type;location;lat;lon;timestamp;P1;durP1;ratioP1;P2;durP2;ratioP2
12972;SDS011;6551;51.056;9.466;2023-02-15T00:01:58;4.20;;;3.33;;
12972;SDS011;6551;51.056;9.466;2023-02-15T00:04:25;3.33;;;2.97;;
12972;SDS011;6551;51.056;9.466;2023-02-15T00:07:13;6.53;;;4.13;;
12972;SDS011;6551;51.056;9.466;2023-02-15T00:09:41;3.90;;;3.17;;
12972;SDS011;6551;51.056;9.466;2023-02-15T00:12:08;5.40;;;4.00;;
12972;SDS011;6551;51.056;9.466;2023-02-15T00:14:35;3.90;;;3.50;;
12972;SDS011;6551;51.056;9.466;2023-02-15T00:17:01;9.50;;;3.57;;
12972;SDS011;6551;51.056;9.466;2023-02-15T00:19:27;4.80;;;3.33;;
12972;SDS011;6551;51.056;9.466;2023-02-15T00:21:53;4.00;;;3.03;;
12972;SDS011;6551;51.056;9.466;2023-02-15T00:24:19;3.83;;;3.43;;
12972;SDS011;6551;51.056;9.466;2023-02-15T00:26:45;8.90;;;3.87;;
12972;SDS011;6551;51.056;9.466;2023-02-15T00:29:12;4.07;;;3.23;;
12972;SDS011;6551;51.056;9.466;2023-02-15T00:31:40;11.70;;;4.73;;
12972;SDS011;6551;51.056;9.466;2023-02-15T00:36:39;15.90;;;5.73;;
12972;SDS011;6551;51.056;9.466;2023-02-15T00:39:07;10.30;;;3.47;;
12972;SDS011;6551;51.056;9.466;2023-02-15T00:41:36;47.50;;;7.30;;
12972;SDS011;6551;51.056;9.466;2023-02-15T00:44:04;22.47;;;6.30;;
12972;SDS011;6551;51.056;9.466;2023-02-15T00:46:31;43.03;;;5.67;;
12972;SDS011;6551;51.056;9.466;2023-02-15T00:48:57;3.43;;;2.83;;
12972;SDS011;6551;51.056;9.466;2023-02-15T00:51:25;12.67;;;4.03;;
12972;SDS011;6551;51.056;9.466;2023-02-15T00:53:51;18.63;;;6.00;;
12972;SDS011;6551;51.056;9.466;2023-02-15T00:56:17;24.70;;;6.00;;
12972;SDS011;6551;51.056;9.466;2023-02-15T00:58:44;61.43;;;7.03;;
12972;SDS011;6551;51.056;9.466;2023-02-15T01:01:11;18.67;;;5.70;;
12972;SDS011;6551;51.056;9.466;2023-02-15T01:03:46;51.47;;;8.33;;
12972;SDS011;6551;51.056;9.466;2023-02-15T01:06:13;15.00;;;5.80;;
12972;SDS011;6551;51.056;9.466;2023-02-15T01:08:41;9.27;;;5.60;;
12972;SDS011;6551;51.056;9.466;2023-02-15T01:11:10;27.83;;;7.13;;
12972;SDS011;6551;51.056;9.466;2023-02-15T01:13:40;5.47;;;4.13;;
12972;SDS011;6551;51.056;9.466;2023-02-15T01:16:06;25.80;;;6.60;;
12972;SDS011;6551;51.056;9.466;2023-02-15T01:18:32;5.40;;;4.20;;
12972;SDS011;6551;51.056;9.466;2023-02-15T01:20:59;7.63;;;3.37;;
12972;SDS011;6551;51.056;9.466;2023-02-15T01:23:25;4.87;;;3.83;;
12972;SDS011;6551;51.056;9.466;2023-02-15T01:25:52;7.73;;;3.93;;
12972;SDS011;6551;51.056;9.466;2023-02-15T01:28:19;5.53;;;3.43;;
12972;SDS011;6551;51.056;9.466;2023-02-15T01:30:46;6.00;;;3.87;;
12972;SDS011;6551;51.056;9.466;2023-02-15T01:33:13;28.17;;;5.57;;
12972;SDS011;6551;51.056;9.466;2023-02-15T01:35:43;17.73;;;4.50;;
12972;SDS011;6551;51.056;9.466;2023-02-15T01:38:11;4.07;;;3.67;;
12972;SDS011;6551;51.056;9.466;2023-02-15T01:43:47;3.20;;;2.90;;
12972;SDS011;6551;51.056;9.466;2023-02-15T01:46:17;7.67;;;4.43;;
12972;SDS011;6551;51.056;9.466;2023-02-15T01:48:50;4.07;;;3.30;;
12972;SDS011;6551;51.056;9.466;2023-02-15T01:51:27;3.10;;;2.80;;
12972;SDS011;6551;51.056;9.466;2023-02-15T01:54:06;4.73;;;3.43;;
12972;SDS011;6551;51.056;9.466;2023-02-15T01:56:48;7.13;;;3.67;;
12972;SDS011;6551;51.056;9.466;2023-02-15T01:59:16;9.27;;;4.50;;
12972;SDS011;6551;51.056;9.466;2023-02-15T02:01:47;4.83;;;3.80;;
12972;SDS011;6551;51.056;9.466;2023-02-15T02:07:29;3.60;;;3.10;;
12972;SDS011;6551;51.056;9.466;2023-02-15T02:10:05;10.20;;;4.57;;
12972;SDS011;6551;51.056;9.466;2023-02-15T02:12:32;5.37;;;3.23;;
12972;SDS011;6551;51.056;9.466;2023-02-15T02:15:02;3.00;;;2.60;;
12972;SDS011;6551;51.056;9.466;2023-02-15T02:17:38;3.03;;;2.70;;
12972;SDS011;6551;51.056;9.466;2023-02-15T02:24:08;7.17;;;3.77;;
12972;SDS011;6551;51.056;9.466;2023-02-15T02:30:46;5.47;;;2.90;;
12972;SDS011;6551;51.056;9.466;2023-02-15T02:42:42;4.07;;;3.10;;
12972;SDS011;6551;51.056;9.466;2023-02-15T02:45:23;2.97;;;2.60;;
12972;SDS011;6551;51.056;9.466;2023-02-15T02:48:06;22.73;;;4.07;;
12972;SDS011;6551;51.056;9.466;2023-02-15T02:50:38;175.27;;;7.93;;
12972;SDS011;6551;51.056;9.466;2023-02-15T02:53:06;87.47;;;7.63;;
12972;SDS011;6551;51.056;9.466;2023-02-15T03:01:02;6.23;;;3.47;;
12972;SDS011;6551;51.056;9.466;2023-02-15T03:03:50;6.93;;;3.37;;
12972;SDS011;6551;51.056;9.466;2023-02-15T03:06:23;26.83;;;4.50;;
12972;SDS011;6551;51.056;9.466;2023-02-15T03:09:10;19.10;;;4.00;;
12972;SDS011;6551;51.056;9.466;2023-02-15T03:11:46;10.00;;;3.30;;
12972;SDS011;6551;51.056;9.466;2023-02-15T03:14:14;3.53;;;3.20;;
12972;SDS011;6551;51.056;9.466;2023-02-15T03:16:43;3.47;;;3.10;;
12972;SDS011;6551;51.056;9.466;2023-02-15T03:19:16;4.10;;;3.37;;
12972;SDS011;6551;51.056;9.466;2023-02-15T03:21:49;239.80;;;10.00;;
12972;SDS011;6551;51.056;9.466;2023-02-15T03:24:27;67.90;;;6.13;;
12972;SDS011;6551;51.056;9.466;2023-02-15T03:26:59;41.13;;;5.30;;
12972;SDS011;6551;51.056;9.466;2023-02-15T03:29:31;61.60;;;5.20;;
12972;SDS011;6551;51.056;9.466;2023-02-15T03:32:01;168.90;;;10.00;;
12972;SDS011;6551;51.056;9.466;2023-02-15T03:34:35;28.57;;;5.43;;
12972;SDS011;6551;51.056;9.466;2023-02-15T03:43:13;94.77;;;6.63;;
12972;SDS011;6551;51.056;9.466;2023-02-15T03:45:45;89.83;;;9.17;;
12972;SDS011;6551;51.056;9.466;2023-02-15T03:48:29;99.03;;;8.63;;
12972;SDS011;6551;51.056;9.466;2023-02-15T03:51:09;12.97;;;4.10;;
12972;SDS011;6551;51.056;9.466;2023-02-15T03:56:38;6.57;;;3.70;;
12972;SDS011;6551;51.056;9.466;2023-02-15T03:59:07;18.87;;;4.40;;
12972;SDS011;6551;51.056;9.466;2023-02-15T04:04:47;8.93;;;4.10;;
12972;SDS011;6551;51.056;9.466;2023-02-15T04:07:14;37.57;;;6.57;;
12972;SDS011;6551;51.056;9.466;2023-02-15T04:09:42;23.90;;;4.40;;
12972;SDS011;6551;51.056;9.466;2023-02-15T04:12:27;91.20;;;8.90;;
12972;SDS011;6551;51.056;9.466;2023-02-15T04:14:53;16.00;;;4.00;;
12972;SDS011;6551;51.056;9.466;2023-02-15T04:17:40;5.00;;;3.20;;
12972;SDS011;6551;51.056;9.466;2023-02-15T04:20:07;6.80;;;3.20;;
12972;SDS011;6551;51.056;9.466;2023-02-15T04:22:54;7.50;;;3.17;;
12972;SDS011;6551;51.056;9.466;2023-02-15T04:25:39;16.83;;;4.47;;
12972;SDS011;6551;51.056;9.466;2023-02-15T04:28:05;2.90;;;2.60;;
12972;SDS011;6551;51.056;9.466;2023-02-15T04:30:32;4.27;;;3.30;;
12972;SDS011;6551;51.056;9.466;2023-02-15T04:32:58;5.60;;;3.30;;
12972;SDS011;6551;51.056;9.466;2023-02-15T04:35:24;9.00;;;3.93;;
12972;SDS011;6551;51.056;9.466;2023-02-15T04:37:51;3.97;;;3.23;;
12972;SDS011;6551;51.056;9.466;2023-02-15T04:40:17;5.33;;;3.33;;
12972;SDS011;6551;51.056;9.466;2023-02-15T04:42:47;4.60;;;2.60;;
12972;SDS011;6551;51.056;9.466;2023-02-15T04:45:15;3.53;;;3.10;;
12972;SDS011;6551;51.056;9.466;2023-02-15T04:47:43;34.43;;;4.90;;
12972;SDS011;6551;51.056;9.466;2023-02-15T04:50:09;52.10;;;5.93;;
12972;SDS011;6551;51.056;9.466;2023-02-15T04:52:37;58.93;;;5.80;;
12972;SDS011;6551;51.056;9.466;2023-02-15T04:55:03;43.13;;;6.37;;
12972;SDS011;6551;51.056;9.466;2023-02-15T04:57:31;44.57;;;6.30;;
12972;SDS011;6551;51.056;9.466;2023-02-15T04:59:56;17.70;;;4.73;;
12972;SDS011;6551;51.056;9.466;2023-02-15T05:02:25;6.23;;;3.73;;
12972;SDS011;6551;51.056;9.466;2023-02-15T05:04:52;11.53;;;4.87;;
12972;SDS011;6551;51.056;9.466;2023-02-15T05:07:18;4.57;;;3.50;;
12972;SDS011;6551;51.056;9.466;2023-02-15T05:09:46;13.47;;;5.37;;
12972;SDS011;6551;51.056;9.466;2023-02-15T05:12:12;5.17;;;4.20;;
12972;SDS011;6551;51.056;9.466;2023-02-15T05:14:40;67.63;;;6.33;;
12972;SDS011;6551;51.056;9.466;2023-02-15T05:17:06;5.80;;;4.17;;
12972;SDS011;6551;51.056;9.466;2023-02-15T05:19:31;5.73;;;4.00;;
12972;SDS011;6551;51.056;9.466;2023-02-15T05:21:57;20.70;;;5.23;;
12972;SDS011;6551;51.056;9.466;2023-02-15T05:24:24;5.40;;;3.87;;
12972;SDS011;6551;51.056;9.466;2023-02-15T05:27:10;11.17;;;4.43;;
12972;SDS011;6551;51.056;9.466;2023-02-15T05:29:55;8.67;;;4.90;;
12972;SDS011;6551;51.056;9.466;2023-02-15T05:32:22;11.87;;;5.63;;
12972;SDS011;6551;51.056;9.466;2023-02-15T05:34:51;6.83;;;4.80;;
12972;SDS011;6551;51.056;9.466;2023-02-15T05:37:17;11.27;;;5.83;;
12972;SDS011;6551;51.056;9.466;2023-02-15T05:39:43;8.20;;;4.70;;
12972;SDS011;6551;51.056;9.466;2023-02-15T05:42:10;8.47;;;4.83;;
12972;SDS011;6551;51.056;9.466;2023-02-15T05:44:36;10.50;;;4.57;;
12972;SDS011;6551;51.056;9.466;2023-02-15T05:47:01;26.70;;;5.33;;
12972;SDS011;6551;51.056;9.466;2023-02-15T05:49:28;21.40;;;4.77;;
12972;SDS011;6551;51.056;9.466;2023-02-15T05:51:55;6.57;;;3.93;;
12972;SDS011;6551;51.056;9.466;2023-02-15T05:54:21;8.33;;;4.70;;
12972;SDS011;6551;51.056;9.466;2023-02-15T05:56:48;15.03;;;4.93;;
12972;SDS011;6551;51.056;9.466;2023-02-15T05:59:14;5.70;;;4.13;;
12972;SDS011;6551;51.056;9.466;2023-02-15T06:01:41;4.23;;;3.73;;
12972;SDS011;6551;51.056;9.466;2023-02-15T06:04:11;4.40;;;3.90;;
12972;SDS011;6551;51.056;9.466;2023-02-15T06:06:38;5.97;;;3.63;;
12972;SDS011;6551;51.056;9.466;2023-02-15T06:09:06;5.03;;;3.80;;
12972;SDS011;6551;51.056;9.466;2023-02-15T06:11:32;5.13;;;4.10;;
12972;SDS011;6551;51.056;9.466;2023-02-15T06:13:58;5.37;;;4.27;;
12972;SDS011;6551;51.056;9.466;2023-02-15T06:16:24;7.83;;;5.73;;
12972;SDS011;6551;51.056;9.466;2023-02-15T06:18:50;11.37;;;5.17;;
12972;SDS011;6551;51.056;9.466;2023-02-15T06:21:16;5.23;;;4.37;;
12972;SDS011;6551;51.056;9.466;2023-02-15T06:23:43;7.90;;;4.77;;
12972;SDS011;6551;51.056;9.466;2023-02-15T06:26:09;8.63;;;4.63;;
12972;SDS011;6551;51.056;9.466;2023-02-15T06:28:36;14.90;;;5.23;;
12972;SDS011;6551;51.056;9.466;2023-02-15T06:31:02;7.47;;;4.97;;
12972;SDS011;6551;51.056;9.466;2023-02-15T06:33:29;10.17;;;4.57;;
12972;SDS011;6551;51.056;9.466;2023-02-15T06:35:57;5.63;;;4.57;;
12972;SDS011;6551;51.056;9.466;2023-02-15T06:38:23;7.90;;;4.70;;
12972;SDS011;6551;51.056;9.466;2023-02-15T06:40:50;8.17;;;4.90;;
12972;SDS011;6551;51.056;9.466;2023-02-15T06:43:16;5.77;;;4.77;;
12972;SDS011;6551;51.056;9.466;2023-02-15T06:45:45;6.83;;;4.47;;
12972;SDS011;6551;51.056;9.466;2023-02-15T06:48:11;5.40;;;4.30;;
12972;SDS011;6551;51.056;9.466;2023-02-15T06:50:36;5.67;;;4.40;;
12972;SDS011;6551;51.056;9.466;2023-02-15T06:53:02;6.30;;;4.53;;
12972;SDS011;6551;51.056;9.466;2023-02-15T06:55:29;8.30;;;4.20;;
12972;SDS011;6551;51.056;9.466;2023-02-15T06:57:56;4.90;;;3.93;;
12972;SDS011;6551;51.056;9.466;2023-02-15T07:00:22;6.40;;;4.23;;
12972;SDS011;6551;51.056;9.466;2023-02-15T07:02:57;8.67;;;4.20;;
12972;SDS011;6551;51.056;9.466;2023-02-15T07:05:26;8.80;;;4.37;;
12972;SDS011;6551;51.056;9.466;2023-02-15T07:07:56;5.23;;;4.20;;
12972;SDS011;6551;51.056;9.466;2023-02-15T07:10:24;9.17;;;4.27;;
12972;SDS011;6551;51.056;9.466;2023-02-15T07:12:52;16.20;;;4.53;;
12972;SDS011;6551;51.056;9.466;2023-02-15T07:15:19;4.87;;;3.77;;
12972;SDS011;6551;51.056;9.466;2023-02-15T07:17:47;4.17;;;3.50;;
12972;SDS011;6551;51.056;9.466;2023-02-15T07:20:14;4.20;;;3.33;;
12972;SDS011;6551;51.056;9.466;2023-02-15T07:22:44;4.60;;;3.53;;
12972;SDS011;6551;51.056;9.466;2023-02-15T07:25:11;4.13;;;3.53;;
12972;SDS011;6551;51.056;9.466;2023-02-15T07:27:37;20.10;;;5.57;;
12972;SDS011;6551;51.056;9.466;2023-02-15T07:30:06;8.43;;;4.47;;
12972;SDS011;6551;51.056;9.466;2023-02-15T07:32:36;6.17;;;3.27;;
12972;SDS011;6551;51.056;9.466;2023-02-15T07:35:24;6.87;;;4.27;;
12972;SDS011;6551;51.056;9.466;2023-02-15T07:37:50;4.57;;;3.70;;
12972;SDS011;6551;51.056;9.466;2023-02-15T07:40:19;5.17;;;3.83;;
12972;SDS011;6551;51.056;9.466;2023-02-15T07:42:47;4.73;;;3.80;;
12972;SDS011;6551;51.056;9.466;2023-02-15T07:45:13;7.00;;;4.20;;
12972;SDS011;6551;51.056;9.466;2023-02-15T07:47:40;5.60;;;3.97;;
12972;SDS011;6551;51.056;9.466;2023-02-15T07:50:08;5.30;;;4.20;;
12972;SDS011;6551;51.056;9.466;2023-02-15T07:52:35;5.97;;;4.40;;
12972;SDS011;6551;51.056;9.466;2023-02-15T07:55:01;4.60;;;3.57;;
12972;SDS011;6551;51.056;9.466;2023-02-15T07:57:27;5.43;;;4.33;;
12972;SDS011;6551;51.056;9.466;2023-02-15T07:59:54;6.83;;;5.30;;
12972;SDS011;6551;51.056;9.466;2023-02-15T08:02:20;7.43;;;5.53;;
12972;SDS011;6551;51.056;9.466;2023-02-15T08:04:46;6.60;;;5.03;;
12972;SDS011;6551;51.056;9.466;2023-02-15T08:07:12;6.40;;;4.57;;
12972;SDS011;6551;51.056;9.466;2023-02-15T08:09:41;5.27;;;4.67;;
12972;SDS011;6551;51.056;9.466;2023-02-15T08:12:08;9.23;;;6.10;;
12972;SDS011;6551;51.056;9.466;2023-02-15T08:14:33;6.10;;;4.77;;
12972;SDS011;6551;51.056;9.466;2023-02-15T08:17:03;5.73;;;4.23;;
12972;SDS011;6551;51.056;9.466;2023-02-15T08:19:32;7.90;;;5.47;;
12972;SDS011;6551;51.056;9.466;2023-02-15T08:22:07;5.23;;;4.17;;
12972;SDS011;6551;51.056;9.466;2023-02-15T08:24:38;6.37;;;4.73;;
12972;SDS011;6551;51.056;9.466;2023-02-15T08:27:08;6.53;;;4.97;;
12972;SDS011;6551;51.056;9.466;2023-02-15T08:29:37;5.60;;;4.47;;
12972;SDS011;6551;51.056;9.466;2023-02-15T08:32:09;9.27;;;5.33;;
12972;SDS011;6551;51.056;9.466;2023-02-15T08:34:40;5.60;;;4.27;;
12972;SDS011;6551;51.056;9.466;2023-02-15T08:37:08;7.80;;;5.33;;
12972;SDS011;6551;51.056;9.466;2023-02-15T08:39:37;11.30;;;6.50;;
12972;SDS011;6551;51.056;9.466;2023-02-15T08:42:06;7.67;;;5.80;;
12972;SDS011;6551;51.056;9.466;2023-02-15T08:44:31;9.37;;;5.87;;
12972;SDS011;6551;51.056;9.466;2023-02-15T08:46:57;6.97;;;5.27;;
12972;SDS011;6551;51.056;9.466;2023-02-15T08:49:29;7.97;;;5.20;;
12972;SDS011;6551;51.056;9.466;2023-02-15T08:51:56;10.67;;;6.57;;
12972;SDS011;6551;51.056;9.466;2023-02-15T08:54:22;6.77;;;5.23;;
12972;SDS011;6551;51.056;9.466;2023-02-15T08:56:49;9.47;;;7.10;;
12972;SDS011;6551;51.056;9.466;2023-02-15T08:59:19;7.07;;;5.03;;
12972;SDS011;6551;51.056;9.466;2023-02-15T09:01:46;8.90;;;6.73;;
12972;SDS011;6551;51.056;9.466;2023-02-15T09:04:15;7.40;;;5.17;;
12972;SDS011;6551;51.056;9.466;2023-02-15T09:06:43;6.30;;;4.70;;
12972;SDS011;6551;51.056;9.466;2023-02-15T09:09:11;8.40;;;4.87;;
12972;SDS011;6551;51.056;9.466;2023-02-15T09:11:38;7.07;;;5.53;;
12972;SDS011;6551;51.056;9.466;2023-02-15T09:14:12;7.43;;;5.27;;
12972;SDS011;6551;51.056;9.466;2023-02-15T09:16:48;7.87;;;5.20;;
12972;SDS011;6551;51.056;9.466;2023-02-15T09:19:16;8.53;;;6.20;;
12972;SDS011;6551;51.056;9.466;2023-02-15T09:21:44;8.40;;;6.30;;
12972;SDS011;6551;51.056;9.466;2023-02-15T09:24:13;11.33;;;8.80;;
12972;SDS011;6551;51.056;9.466;2023-02-15T09:26:42;8.03;;;6.03;;
12972;SDS011;6551;51.056;9.466;2023-02-15T09:29:12;6.87;;;5.10;;
12972;SDS011;6551;51.056;9.466;2023-02-15T09:31:41;6.80;;;5.00;;
12972;SDS011;6551;51.056;9.466;2023-02-15T09:34:09;7.67;;;5.43;;
12972;SDS011;6551;51.056;9.466;2023-02-15T09:36:38;12.27;;;8.70;;
12972;SDS011;6551;51.056;9.466;2023-02-15T09:39:19;7.83;;;5.63;;
12972;SDS011;6551;51.056;9.466;2023-02-15T09:47:52;8.87;;;6.80;;
12972;SDS011;6551;51.056;9.466;2023-02-15T09:50:28;8.57;;;5.73;;
12972;SDS011;6551;51.056;9.466;2023-02-15T09:56:41;8.03;;;5.73;;
12972;SDS011;6551;51.056;9.466;2023-02-15T09:59:37;9.20;;;6.60;;
12972;SDS011;6551;51.056;9.466;2023-02-15T10:20:58;11.33;;;7.93;;
12972;SDS011;6551;51.056;9.466;2023-02-15T10:26:45;13.93;;;9.30;;
12972;SDS011;6551;51.056;9.466;2023-02-15T10:34:58;13.00;;;8.60;;
12972;SDS011;6551;51.056;9.466;2023-02-15T10:38:49;12.53;;;8.93;;
12972;SDS011;6551;51.056;9.466;2023-02-15T10:50:35;12.33;;;8.00;;
12972;SDS011;6551;51.056;9.466;2023-02-15T10:56:34;11.67;;;8.50;;
12972;SDS011;6551;51.056;9.466;2023-02-15T11:08:39;12.70;;;9.40;;
12972;SDS011;6551;51.056;9.466;2023-02-15T11:11:35;11.87;;;8.20;;
12972;SDS011;6551;51.056;9.466;2023-02-15T11:14:15;12.67;;;8.70;;
12972;SDS011;6551;51.056;9.466;2023-02-15T11:16:59;11.27;;;8.10;;
12972;SDS011;6551;51.056;9.466;2023-02-15T11:20:04;12.40;;;8.77;;
12972;SDS011;6551;51.056;9.466;2023-02-15T11:22:52;13.60;;;10.63;;
12972;SDS011;6551;51.056;9.466;2023-02-15T11:25:30;14.80;;;9.80;;
12972;SDS011;6551;51.056;9.466;2023-02-15T11:28:00;14.30;;;10.37;;
12972;SDS011;6551;51.056;9.466;2023-02-15T11:30:41;12.80;;;8.90;;
12972;SDS011;6551;51.056;9.466;2023-02-15T11:33:18;12.03;;;8.07;;
12972;SDS011;6551;51.056;9.466;2023-02-15T11:35:53;14.20;;;9.23;;
12972;SDS011;6551;51.056;9.466;2023-02-15T11:38:38;13.40;;;9.43;;
12972;SDS011;6551;51.056;9.466;2023-02-15T11:41:13;14.43;;;9.20;;
12972;SDS011;6551;51.056;9.466;2023-02-15T11:46:54;14.10;;;10.07;;
12972;SDS011;6551;51.056;9.466;2023-02-15T11:51:57;14.77;;;9.10;;
12972;SDS011;6551;51.056;9.466;2023-02-15T11:54:39;14.87;;;9.67;;
12972;SDS011;6551;51.056;9.466;2023-02-15T11:59:40;12.37;;;9.37;;
12972;SDS011;6551;51.056;9.466;2023-02-15T12:02:30;15.40;;;9.83;;
12972;SDS011;6551;51.056;9.466;2023-02-15T12:05:03;12.73;;;8.57;;
12972;SDS011;6551;51.056;9.466;2023-02-15T12:07:37;15.97;;;10.17;;
12972;SDS011;6551;51.056;9.466;2023-02-15T12:11:17;14.13;;;9.17;;
12972;SDS011;6551;51.056;9.466;2023-02-15T12:13:27;14.37;;;9.43;;
12972;SDS011;6551;51.056;9.466;2023-02-15T12:15:55;13.50;;;9.23;;
12972;SDS011;6551;51.056;9.466;2023-02-15T12:21:10;13.60;;;9.80;;
12972;SDS011;6551;51.056;9.466;2023-02-15T12:24:45;14.43;;;10.67;;
12972;SDS011;6551;51.056;9.466;2023-02-15T12:26:55;14.97;;;10.30;;
12972;SDS011;6551;51.056;9.466;2023-02-15T12:29:27;15.70;;;10.23;;
12972;SDS011;6551;51.056;9.466;2023-02-15T12:31:55;16.47;;;10.17;;
12972;SDS011;6551;51.056;9.466;2023-02-15T12:34:32;16.37;;;10.77;;
12972;SDS011;6551;51.056;9.466;2023-02-15T12:37:08;15.37;;;9.83;;
12972;SDS011;6551;51.056;9.466;2023-02-15T12:40:18;14.97;;;10.13;;
12972;SDS011;6551;51.056;9.466;2023-02-15T12:42:48;15.57;;;9.70;;
12972;SDS011;6551;51.056;9.466;2023-02-15T12:45:23;13.50;;;9.77;;
12972;SDS011;6551;51.056;9.466;2023-02-15T12:48:31;14.03;;;9.37;;
12972;SDS011;6551;51.056;9.466;2023-02-15T12:50:51;15.50;;;10.70;;
12972;SDS011;6551;51.056;9.466;2023-02-15T12:53:33;15.83;;;9.90;;
12972;SDS011;6551;51.056;9.466;2023-02-15T12:56:02;15.27;;;9.80;;
12972;SDS011;6551;51.056;9.466;2023-02-15T12:58:34;15.87;;;10.83;;
12972;SDS011;6551;51.056;9.466;2023-02-15T13:01:18;15.20;;;10.07;;
12972;SDS011;6551;51.056;9.466;2023-02-15T13:06:49;14.10;;;9.77;;
12972;SDS011;6551;51.056;9.466;2023-02-15T13:11:57;14.83;;;10.10;;
12972;SDS011;6551;51.056;9.466;2023-02-15T13:14:56;15.43;;;10.63;;
12972;SDS011;6551;51.056;9.466;2023-02-15T13:17:31;14.67;;;9.50;;
12972;SDS011;6551;51.056;9.466;2023-02-15T13:20:18;15.20;;;10.53;;
12972;SDS011;6551;51.056;9.466;2023-02-15T13:22:58;14.23;;;10.13;;
12972;SDS011;6551;51.056;9.466;2023-02-15T13:25:39;13.30;;;9.43;;
12972;SDS011;6551;51.056;9.466;2023-02-15T13:28:16;14.73;;;10.00;;
12972;SDS011;6551;51.056;9.466;2023-02-15T13:30:47;14.67;;;9.93;;
12972;SDS011;6551;51.056;9.466;2023-02-15T13:33:16;16.33;;;11.90;;
12972;SDS011;6551;51.056;9.466;2023-02-15T13:36:09;14.93;;;10.00;;
12972;SDS011;6551;51.056;9.466;2023-02-15T13:39:09;13.23;;;10.13;;
12972;SDS011;6551;51.056;9.466;2023-02-15T13:41:55;13.93;;;10.10;;
12972;SDS011;6551;51.056;9.466;2023-02-15T13:51:07;14.07;;;10.20;;
12972;SDS011;6551;51.056;9.466;2023-02-15T13:57:33;15.83;;;10.30;;
12972;SDS011;6551;51.056;9.466;2023-02-15T14:00:22;15.73;;;10.80;;
12972;SDS011;6551;51.056;9.466;2023-02-15T14:14:31;18.67;;;10.93;;
12972;SDS011;6551;51.056;9.466;2023-02-15T14:20:01;17.53;;;10.53;;
12972;SDS011;6551;51.056;9.466;2023-02-15T14:22:44;14.97;;;10.60;;
12972;SDS011;6551;51.056;9.466;2023-02-15T14:25:42;15.77;;;11.27;;
12972;SDS011;6551;51.056;9.466;2023-02-15T14:28:16;17.80;;;11.10;;
12972;SDS011;6551;51.056;9.466;2023-02-15T14:30:52;18.97;;;12.13;;
12972;SDS011;6551;51.056;9.466;2023-02-15T14:33:36;17.97;;;11.57;;
12972;SDS011;6551;51.056;9.466;2023-02-15T14:36:10;18.23;;;12.67;;
12972;SDS011;6551;51.056;9.466;2023-02-15T14:45:06;17.73;;;12.07;;
12972;SDS011;6551;51.056;9.466;2023-02-15T14:48:53;16.97;;;11.33;;
12972;SDS011;6551;51.056;9.466;2023-02-15T14:51:07;18.20;;;12.37;;
12972;SDS011;6551;51.056;9.466;2023-02-15T14:53:38;18.63;;;12.03;;
12972;SDS011;6551;51.056;9.466;2023-02-15T15:01:33;18.87;;;12.07;;
12972;SDS011;6551;51.056;9.466;2023-02-15T15:04:04;17.17;;;11.53;;
12972;SDS011;6551;51.056;9.466;2023-02-15T15:06:39;16.80;;;11.37;;
12972;SDS011;6551;51.056;9.466;2023-02-15T15:09:28;17.20;;;11.70;;
12972;SDS011;6551;51.056;9.466;2023-02-15T15:12:43;21.50;;;12.90;;
12972;SDS011;6551;51.056;9.466;2023-02-15T15:14:49;17.83;;;11.87;;
12972;SDS011;6551;51.056;9.466;2023-02-15T15:20:41;20.47;;;12.60;;
12972;SDS011;6551;51.056;9.466;2023-02-15T15:25:44;20.37;;;13.63;;
12972;SDS011;6551;51.056;9.466;2023-02-15T15:40:39;23.30;;;14.07;;
12972;SDS011;6551;51.056;9.466;2023-02-15T15:46:08;20.77;;;13.10;;
12972;SDS011;6551;51.056;9.466;2023-02-15T15:49:02;20.33;;;13.60;;
12972;SDS011;6551;51.056;9.466;2023-02-15T15:51:35;20.23;;;13.20;;
12972;SDS011;6551;51.056;9.466;2023-02-15T15:54:11;18.67;;;12.67;;
12972;SDS011;6551;51.056;9.466;2023-02-15T15:56:56;21.17;;;13.13;;
12972;SDS011;6551;51.056;9.466;2023-02-15T15:59:30;21.63;;;13.70;;
12972;SDS011;6551;51.056;9.466;2023-02-15T16:02:05;21.40;;;13.87;;
12972;SDS011;6551;51.056;9.466;2023-02-15T16:04:34;22.40;;;14.30;;
12972;SDS011;6551;51.056;9.466;2023-02-15T16:12:34;19.50;;;12.70;;
12972;SDS011;6551;51.056;9.466;2023-02-15T16:15:26;18.20;;;12.60;;
12972;SDS011;6551;51.056;9.466;2023-02-15T16:18:02;17.40;;;11.83;;
12972;SDS011;6551;51.056;9.466;2023-02-15T16:26:20;18.33;;;12.90;;
12972;SDS011;6551;51.056;9.466;2023-02-15T16:29:23;19.27;;;13.53;;
12972;SDS011;6551;51.056;9.466;2023-02-15T16:32:03;18.07;;;13.33;;
12972;SDS011;6551;51.056;9.466;2023-02-15T16:34:52;19.17;;;12.77;;
12972;SDS011;6551;51.056;9.466;2023-02-15T16:37:26;20.80;;;13.07;;
12972;SDS011;6551;51.056;9.466;2023-02-15T16:39:58;17.30;;;12.73;;
12972;SDS011;6551;51.056;9.466;2023-02-15T16:42:25;17.73;;;12.67;;
12972;SDS011;6551;51.056;9.466;2023-02-15T16:44:54;18.80;;;13.03;;
12972;SDS011;6551;51.056;9.466;2023-02-15T16:47:22;20.00;;;12.30;;
12972;SDS011;6551;51.056;9.466;2023-02-15T16:49:53;19.83;;;13.53;;
12972;SDS011;6551;51.056;9.466;2023-02-15T16:52:25;18.27;;;12.60;;
12972;SDS011;6551;51.056;9.466;2023-02-15T16:54:57;22.13;;;13.97;;
12972;SDS011;6551;51.056;9.466;2023-02-15T16:57:27;19.73;;;12.97;;
12972;SDS011;6551;51.056;9.466;2023-02-15T17:00:02;23.63;;;15.07;;
12972;SDS011;6551;51.056;9.466;2023-02-15T17:02:33;20.00;;;13.90;;
12972;SDS011;6551;51.056;9.466;2023-02-15T17:05:13;20.03;;;14.40;;
12972;SDS011;6551;51.056;9.466;2023-02-15T17:10:46;23.40;;;16.40;;
12972;SDS011;6551;51.056;9.466;2023-02-15T17:13:32;24.80;;;16.13;;
12972;SDS011;6551;51.056;9.466;2023-02-15T17:18:31;23.17;;;14.03;;
12972;SDS011;6551;51.056;9.466;2023-02-15T17:21:16;26.37;;;14.93;;
12972;SDS011;6551;51.056;9.466;2023-02-15T17:23:46;21.10;;;14.70;;
12972;SDS011;6551;51.056;9.466;2023-02-15T17:26:25;22.83;;;14.23;;
12972;SDS011;6551;51.056;9.466;2023-02-15T17:28:59;24.90;;;14.27;;
12972;SDS011;6551;51.056;9.466;2023-02-15T17:31:47;24.57;;;14.27;;
12972;SDS011;6551;51.056;9.466;2023-02-15T17:40:14;24.83;;;13.60;;
12972;SDS011;6551;51.056;9.466;2023-02-15T17:42:44;23.70;;;14.80;;
12972;SDS011;6551;51.056;9.466;2023-02-15T17:45:11;26.83;;;14.27;;
12972;SDS011;6551;51.056;9.466;2023-02-15T17:47:38;19.27;;;13.40;;
12972;SDS011;6551;51.056;9.466;2023-02-15T17:50:05;38.17;;;16.47;;
12972;SDS011;6551;51.056;9.466;2023-02-15T17:52:33;23.40;;;13.30;;
12972;SDS011;6551;51.056;9.466;2023-02-15T17:55:04;21.87;;;13.53;;
12972;SDS011;6551;51.056;9.466;2023-02-15T17:57:59;20.70;;;13.37;;
12972;SDS011;6551;51.056;9.466;2023-02-15T18:00:25;20.67;;;13.63;;
12972;SDS011;6551;51.056;9.466;2023-02-15T18:03:11;22.23;;;14.00;;
12972;SDS011;6551;51.056;9.466;2023-02-15T18:05:56;23.03;;;13.00;;
12972;SDS011;6551;51.056;9.466;2023-02-15T18:08:41;22.97;;;12.90;;
12972;SDS011;6551;51.056;9.466;2023-02-15T18:11:26;22.40;;;13.43;;
12972;SDS011;6551;51.056;9.466;2023-02-15T18:14:04;25.27;;;14.13;;
12972;SDS011;6551;51.056;9.466;2023-02-15T18:16:38;25.93;;;13.93;;
12972;SDS011;6551;51.056;9.466;2023-02-15T18:19:14;28.17;;;13.60;;
12972;SDS011;6551;51.056;9.466;2023-02-15T18:21:43;21.00;;;13.97;;
12972;SDS011;6551;51.056;9.466;2023-02-15T18:24:14;23.50;;;14.03;;
12972;SDS011;6551;51.056;9.466;2023-02-15T18:26:46;35.40;;;14.53;;
12972;SDS011;6551;51.056;9.466;2023-02-15T18:29:13;19.80;;;14.13;;
12972;SDS011;6551;51.056;9.466;2023-02-15T18:31:39;21.80;;;14.40;;
12972;SDS011;6551;51.056;9.466;2023-02-15T18:34:27;25.30;;;14.40;;
12972;SDS011;6551;51.056;9.466;2023-02-15T18:37:05;25.63;;;13.90;;
12972;SDS011;6551;51.056;9.466;2023-02-15T18:39:37;24.50;;;13.57;;
12972;SDS011;6551;51.056;9.466;2023-02-15T18:42:29;22.07;;;13.23;;
12972;SDS011;6551;51.056;9.466;2023-02-15T18:45:00;21.83;;;12.67;;